Ronald Reagan Washington National Airport

KDCA | DCA

Washington , Virginia , United States

Thursday, September 19th, 2019 | 15:22

Weather

KDCA 191852Z VRB03KT 10SM SCT250 23/01 A3031 RMK AO2 SLP263 T02330011

Charts

47 Available

Gates

79 Available

Runways

3 Available

Events

No events for this airport


New event